createdAt,value
2024-03-13T00:02:13.864Z,96.25
2024-03-13T00:04:48.630Z,94.32
2024-03-13T00:07:16.954Z,98.65
2024-03-13T00:09:47.929Z,98.18
2024-03-13T00:12:18.637Z,97.45
2024-03-13T00:14:54.362Z,98.15
2024-03-13T00:17:22.036Z,96.38
2024-03-13T00:19:52.426Z,96.05
2024-03-13T00:22:20.494Z,97.30
2024-03-13T00:24:53.200Z,97.45
2024-03-13T00:27:21.869Z,98.00
2024-03-13T00:29:49.708Z,94.68
2024-03-13T00:32:19.240Z,95.10
2024-03-13T00:34:46.689Z,91.38
2024-03-13T00:37:17.909Z,93.10
2024-03-13T00:39:45.259Z,93.68
2024-03-13T00:42:13.133Z,95.40
2024-03-13T00:44:42.668Z,93.53
2024-03-13T00:47:12.907Z,95.88
2024-03-13T00:49:43.437Z,95.95
2024-03-13T00:52:11.586Z,94.45
2024-03-13T00:54:45.890Z,93.30
2024-03-13T00:57:15.079Z,91.75
2024-03-13T00:59:41.957Z,94.20
2024-03-13T01:02:09.520Z,92.05
2024-03-13T01:04:39.190Z,95.05
2024-03-13T01:07:09.577Z,93.70
2024-03-13T01:09:39.158Z,101.47
2024-03-13T01:12:07.522Z,100.57
2024-03-13T01:14:37.677Z,103.15
2024-03-13T01:17:05.125Z,109.40
2024-03-13T01:19:36.171Z,109.65
2024-03-13T01:22:16.439Z,112.85
2024-03-13T01:24:44.768Z,111.00
2024-03-13T01:27:11.885Z,106.05
2024-03-13T01:29:43.260Z,106.78
2024-03-13T01:32:12.452Z,108.13
2024-03-13T01:34:39.568Z,103.63
2024-03-13T01:37:22.610Z,104.25
2024-03-13T01:39:53.174Z,103.30
2024-03-13T01:42:34.418Z,103.15
2024-03-13T01:45:20.274Z,105.25
2024-03-13T01:48:03.528Z,105.32
2024-03-13T01:50:44.290Z,104.05
2024-03-13T01:53:26.204Z,102.40
2024-03-13T01:55:56.116Z,100.07
2024-03-13T01:58:41.071Z,106.05
2024-03-13T02:01:22.599Z,104.72
2024-03-13T02:03:51.960Z,105.30
2024-03-13T02:06:19.662Z,104.60
2024-03-13T02:08:50.193Z,105.05
2024-03-13T02:11:17.442Z,106.63
2024-03-13T02:13:44.623Z,105.50
2024-03-13T02:16:11.561Z,101.60
2024-03-13T02:18:42.044Z,105.75
2024-03-13T02:21:09.245Z,102.55
2024-03-13T02:23:40.439Z,105.00
2024-03-13T02:26:10.432Z,103.40
2024-03-13T02:28:40.752Z,102.07
2024-03-13T02:31:08.259Z,97.68
2024-03-13T02:33:40.238Z,99.25
2024-03-13T02:36:07.799Z,101.47
2024-03-13T02:38:36.127Z,98.03
2024-03-13T02:41:03.613Z,96.03
2024-03-13T02:43:32.135Z,99.30
2024-03-13T02:46:03.632Z,95.60
2024-03-13T02:48:30.984Z,100.20
2024-03-13T02:50:58.034Z,99.55
2024-03-13T02:53:25.566Z,103.50
2024-03-13T02:55:56.423Z,103.03
2024-03-13T02:58:24.697Z,104.07
2024-03-13T03:00:52.076Z,105.20
2024-03-13T03:03:21.892Z,105.07
2024-03-13T03:05:48.752Z,105.43
2024-03-13T03:08:16.362Z,108.05
2024-03-13T03:10:43.323Z,107.72
2024-03-13T03:13:12.145Z,107.35
2024-03-13T03:15:40.767Z,108.18
2024-03-13T03:18:09.074Z,109.47
2024-03-13T03:20:38.195Z,110.25
2024-03-13T03:23:05.062Z,108.63
2024-03-13T03:25:32.192Z,111.00
2024-03-13T03:28:01.342Z,114.72
2024-03-13T03:30:32.045Z,111.80
2024-03-13T03:33:02.944Z,112.22
2024-03-13T03:35:33.367Z,112.82
2024-03-13T03:38:05.571Z,112.30
2024-03-13T03:40:35.056Z,108.38
2024-03-13T03:43:02.284Z,107.90
2024-03-13T03:45:30.366Z,105.53
2024-03-13T03:48:04.539Z,103.68
2024-03-13T03:50:34.838Z,98.05
2024-03-13T03:53:02.210Z,90.15
2024-03-13T03:55:29.255Z,85.53
2024-03-13T03:57:56.080Z,82.25
2024-03-13T04:00:24.004Z,76.47
2024-03-13T04:02:53.105Z,72.85
2024-03-13T04:05:21.607Z,72.07
2024-03-13T04:07:50.672Z,66.63
2024-03-13T04:10:21.668Z,65.28
2024-03-13T04:12:51.100Z,64.28
2024-03-13T04:15:23.181Z,66.43
2024-03-13T04:17:54.683Z,64.35
2024-03-13T04:20:23.419Z,65.85
2024-03-13T04:22:52.124Z,66.38
2024-03-13T04:25:20.872Z,64.32
2024-03-13T04:27:50.306Z,59.85
2024-03-13T04:30:17.050Z,58.63
2024-03-13T04:32:44.153Z,59.83
2024-03-13T04:35:13.224Z,60.03
2024-03-13T04:37:40.794Z,60.70
2024-03-13T04:40:11.516Z,60.58
2024-03-13T04:42:39.266Z,58.30
2024-03-13T04:45:08.391Z,57.17
2024-03-13T04:47:40.789Z,56.40
2024-03-13T04:50:10.543Z,56.10
2024-03-13T04:52:39.661Z,55.15
2024-03-13T04:55:07.921Z,55.58
2024-03-13T04:57:35.152Z,53.47
2024-03-13T05:00:03.329Z,53.50
2024-03-13T05:02:30.361Z,54.28
2024-03-13T05:04:58.958Z,54.53
2024-03-13T05:07:26.521Z,54.20
2024-03-13T05:09:57.121Z,51.83
2024-03-13T05:12:27.966Z,56.58
2024-03-13T05:14:55.964Z,63.17
2024-03-13T05:17:26.286Z,72.45
2024-03-13T05:19:53.526Z,80.35
2024-03-13T05:22:21.283Z,82.38
2024-03-13T05:24:51.088Z,95.85
2024-03-13T05:27:19.123Z,110.38
2024-03-13T05:29:49.884Z,109.35
2024-03-13T05:32:17.481Z,108.63
2024-03-13T05:34:44.529Z,89.15
2024-03-13T05:37:15.650Z,89.85
2024-03-13T05:39:42.890Z,94.85
2024-03-13T05:42:12.265Z,90.70
2024-03-13T05:44:40.913Z,88.38
2024-03-13T05:47:08.256Z,91.35
2024-03-13T05:49:37.391Z,84.10
2024-03-13T05:52:06.332Z,84.88
2024-03-13T05:54:34.349Z,81.68
2024-03-13T05:57:01.674Z,78.43
2024-03-13T05:59:31.286Z,76.53
2024-03-13T06:01:58.776Z,73.05
2024-03-13T06:04:26.272Z,75.07
2024-03-13T06:06:53.812Z,74.45
2024-03-13T06:09:21.271Z,76.10
2024-03-13T06:11:50.549Z,81.88
2024-03-13T06:14:18.491Z,79.32
2024-03-13T06:16:46.536Z,82.90
2024-03-13T06:19:14.996Z,78.90
2024-03-13T06:21:42.482Z,76.43
2024-03-13T06:24:11.264Z,72.97
2024-03-13T06:26:45.941Z,70.72
2024-03-13T06:29:27.973Z,68.68
2024-03-13T06:31:55.306Z,68.90
2024-03-13T06:34:24.662Z,64.60
2024-03-13T06:36:51.833Z,66.90
2024-03-13T06:39:22.652Z,67.60
2024-03-13T06:41:52.111Z,67.57
2024-03-13T06:44:19.154Z,68.70
2024-03-13T06:46:48.459Z,69.07
2024-03-13T06:49:18.177Z,60.60
2024-03-13T06:51:45.078Z,63.70
2024-03-13T06:54:13.136Z,66.30
2024-03-13T06:56:45.079Z,61.60
2024-03-13T06:59:18.215Z,64.95
2024-03-13T07:01:48.553Z,64.97
2024-03-13T07:04:16.976Z,62.20
2024-03-13T07:06:44.566Z,61.50
2024-03-13T07:09:11.963Z,59.25
2024-03-13T07:11:40.144Z,57.63
2024-03-13T07:14:13.360Z,55.83
2024-03-13T07:16:40.426Z,55.00
2024-03-13T07:19:09.326Z,53.75
2024-03-13T07:21:36.624Z,57.40
2024-03-13T07:24:04.435Z,56.60
2024-03-13T07:26:35.500Z,55.50
2024-03-13T07:29:02.514Z,56.55
2024-03-13T07:31:30.742Z,54.35
2024-03-13T07:33:58.564Z,53.40
2024-03-13T07:36:28.067Z,55.35
2024-03-13T07:38:56.484Z,52.28
2024-03-13T07:41:23.475Z,52.90
2024-03-13T07:43:52.502Z,53.40
2024-03-13T07:46:23.980Z,50.83
2024-03-13T07:48:52.298Z,48.50
2024-03-13T07:51:19.544Z,49.08
2024-03-13T07:53:46.992Z,48.13
2024-03-13T07:56:16.264Z,46.60
2024-03-13T07:58:44.436Z,48.00
2024-03-13T08:01:13.136Z,47.78
2024-03-13T08:03:40.272Z,46.55
2024-03-13T09:07:56.759Z,43.30
2024-03-13T09:10:23.790Z,41.22
2024-03-13T09:12:51.982Z,42.53
2024-03-13T09:15:19.175Z,42.97
2024-03-13T09:17:47.868Z,44.13
2024-03-13T09:20:17.087Z,42.45
2024-03-13T09:22:47.001Z,42.28
2024-03-13T09:25:14.079Z,41.65
2024-03-13T09:27:41.083Z,42.78
2024-03-13T09:30:09.590Z,41.72
2024-03-13T09:32:38.150Z,41.55
2024-03-13T09:35:10.604Z,39.92
2024-03-13T09:37:38.891Z,40.30
2024-03-13T09:40:08.742Z,40.38
2024-03-13T09:42:37.887Z,39.30
2024-03-13T09:45:17.845Z,38.05
2024-03-13T09:47:45.918Z,36.03
2024-03-13T09:50:15.490Z,36.50
2024-03-13T09:55:16.857Z,38.47
2024-03-13T09:57:49.942Z,40.92
2024-03-13T10:00:20.777Z,39.08
2024-03-13T10:02:52.527Z,43.35
2024-03-13T10:05:20.947Z,40.25
2024-03-13T10:07:52.227Z,41.83
2024-03-13T10:10:28.013Z,38.88
2024-03-13T10:13:03.467Z,40.53
2024-03-13T10:15:30.919Z,46.10
2024-03-13T10:18:15.254Z,51.58
2024-03-13T10:21:10.174Z,36.58
2024-03-13T10:23:41.793Z,36.85
2024-03-13T10:26:10.681Z,37.70
2024-03-13T10:28:39.305Z,39.08
2024-03-13T10:31:06.616Z,37.10
2024-03-13T10:33:36.056Z,36.88
2024-03-13T10:36:05.327Z,34.53
2024-03-13T10:38:35.299Z,35.00
2024-03-13T10:41:05.865Z,33.38
2024-03-13T10:43:33.710Z,31.50
2024-03-13T10:46:08.694Z,33.20
2024-03-13T10:48:37.499Z,32.88
2024-03-13T10:51:13.481Z,32.15
2024-03-13T10:53:46.956Z,32.20
2024-03-13T10:56:20.278Z,34.08
2024-03-13T10:58:48.592Z,34.10
2024-03-13T11:01:19.552Z,36.05
2024-03-13T11:03:48.598Z,36.97
2024-03-13T11:06:17.550Z,40.10
2024-03-13T11:08:45.770Z,38.30
2024-03-13T11:11:20.851Z,36.92
2024-03-13T11:13:58.553Z,36.25
2024-03-13T11:16:28.844Z,32.67
2024-03-13T11:18:57.894Z,31.75
2024-03-13T11:21:39.470Z,29.52
2024-03-13T11:24:12.581Z,30.15
2024-03-13T11:26:40.702Z,29.77
2024-03-13T11:29:15.856Z,29.13
2024-03-13T11:31:43.348Z,29.70
2024-03-13T11:34:16.136Z,27.77
2024-03-13T11:36:46.806Z,23.97
2024-03-13T11:39:17.741Z,21.38
2024-03-13T11:41:46.476Z,23.27
2024-03-13T11:44:21.523Z,22.20
2024-03-13T11:46:51.540Z,21.65
2024-03-13T11:49:21.331Z,22.15
2024-03-13T11:52:05.795Z,21.10
2024-03-13T11:54:34.401Z,20.15
2024-03-13T11:57:19.153Z,20.75
2024-03-13T11:59:56.096Z,19.25
2024-03-13T12:02:32.173Z,20.13
2024-03-13T12:05:08.423Z,18.60
2024-03-13T12:07:44.355Z,20.27
2024-03-13T12:10:21.583Z,17.90
2024-03-13T12:12:49.305Z,19.08
2024-03-13T12:15:20.551Z,17.55
2024-03-13T12:17:52.864Z,17.13
2024-03-13T12:20:23.769Z,18.48
2024-03-13T12:22:52.177Z,16.58
2024-03-13T12:25:21.562Z,16.40
2024-03-13T12:27:53.018Z,17.13
2024-03-13T12:30:22.499Z,17.38
2024-03-13T12:32:59.895Z,17.83
2024-03-13T12:35:28.861Z,16.33
2024-03-13T12:37:59.041Z,15.85
2024-03-13T12:40:27.318Z,15.23
2024-03-13T12:43:12.120Z,15.30
2024-03-13T12:45:40.583Z,15.00
2024-03-13T12:48:11.059Z,15.90
2024-03-13T12:50:38.532Z,16.30
2024-03-13T12:53:06.399Z,16.85
2024-03-13T12:55:35.312Z,15.48
2024-03-13T12:58:08.773Z,15.95
2024-03-13T13:00:44.483Z,17.15
2024-03-13T13:03:12.722Z,16.10
2024-03-13T13:05:40.879Z,15.70
2024-03-13T13:08:14.733Z,16.55
2024-03-13T13:10:43.647Z,15.55
2024-03-13T13:13:10.603Z,15.80
2024-03-13T13:15:39.098Z,14.38
2024-03-13T13:18:09.568Z,13.90
2024-03-13T13:20:41.453Z,14.77
2024-03-13T13:23:11.217Z,15.40
2024-03-13T13:25:39.103Z,15.18
2024-03-13T13:28:12.098Z,12.75
2024-03-13T13:30:44.321Z,12.38
2024-03-13T13:33:11.999Z,11.57
2024-03-13T13:35:44.638Z,11.32
2024-03-13T13:38:13.474Z,12.60
2024-03-13T13:40:43.901Z,12.82
2024-03-13T13:43:10.971Z,11.70
2024-03-13T13:45:39.320Z,10.68
2024-03-13T13:48:11.142Z,11.50
2024-03-13T13:50:38.809Z,10.65
2024-03-13T13:53:07.015Z,10.73
2024-03-13T13:58:06.727Z,10.35
2024-03-13T14:00:37.045Z,9.57
2024-03-13T14:03:04.246Z,9.88
2024-03-13T14:05:40.893Z,9.38
2024-03-13T14:08:09.587Z,13.77
2024-03-13T14:10:41.999Z,10.70
2024-03-13T14:13:09.010Z,9.70
2024-03-13T14:15:36.029Z,10.32
2024-03-13T14:18:07.692Z,10.95
2024-03-13T14:20:35.171Z,9.98
2024-03-13T14:23:03.523Z,11.52
2024-03-13T14:25:33.707Z,10.45
2024-03-13T14:28:01.420Z,11.35
2024-03-13T14:30:30.961Z,11.63
2024-03-13T14:32:59.448Z,11.07
2024-03-13T14:35:27.316Z,12.18
2024-03-13T14:37:54.190Z,11.52
2024-03-13T14:40:24.035Z,11.43
2024-03-13T14:42:54.940Z,10.88
2024-03-13T14:45:24.554Z,10.38
2024-03-13T14:47:53.966Z,9.40
2024-03-13T14:50:21.870Z,10.07
2024-03-13T14:53:03.605Z,10.77
2024-03-13T14:55:36.035Z,10.25
2024-03-13T14:58:05.027Z,10.75
2024-03-13T15:00:34.235Z,11.70
2024-03-13T15:03:01.480Z,11.75
2024-03-13T15:05:33.721Z,12.23
2024-03-13T15:08:06.396Z,10.98
2024-03-13T15:10:34.102Z,10.63
2024-03-13T15:13:03.391Z,11.98
2024-03-13T15:15:31.039Z,12.15
2024-03-13T15:18:01.936Z,13.07
2024-03-13T15:20:29.406Z,34.95
2024-03-13T15:22:56.790Z,45.58
2024-03-13T15:25:24.497Z,17.08
2024-03-13T15:27:52.616Z,32.15
2024-03-13T15:30:20.505Z,59.20
2024-03-13T15:32:48.240Z,51.47
2024-03-13T15:35:15.996Z,29.70
2024-03-13T15:37:44.058Z,20.58
2024-03-13T15:40:17.486Z,20.92
2024-03-13T15:42:48.957Z,19.08
2024-03-13T15:45:19.317Z,20.75
2024-03-13T15:47:47.787Z,25.13
2024-03-13T15:50:25.411Z,24.25
2024-03-13T15:52:58.928Z,20.95
2024-03-13T15:55:25.938Z,24.92
2024-03-13T15:57:53.671Z,29.70
2024-03-13T16:00:26.048Z,35.20
2024-03-13T16:02:56.871Z,36.88
2024-03-13T16:05:27.815Z,29.83
2024-03-13T16:08:16.278Z,28.20
2024-03-13T16:10:44.499Z,31.20
2024-03-13T16:13:12.067Z,33.58
2024-03-13T16:15:39.487Z,27.88
2024-03-13T16:18:06.462Z,26.10
2024-03-13T16:20:37.806Z,23.52
2024-03-13T16:23:07.337Z,25.85
2024-03-13T16:25:34.865Z,31.13
2024-03-13T16:28:02.046Z,39.85
2024-03-13T16:30:31.511Z,43.83
2024-03-13T16:33:00.868Z,48.63
2024-03-13T16:35:35.488Z,50.28
2024-03-13T16:38:03.194Z,49.97
2024-03-13T16:40:30.384Z,38.65
2024-03-13T16:42:58.934Z,37.45
2024-03-13T16:45:27.518Z,29.10
2024-03-13T16:47:54.701Z,23.42
2024-03-13T16:50:23.495Z,19.08
2024-03-13T16:52:50.955Z,22.60
2024-03-13T16:55:18.289Z,23.95
2024-03-13T16:57:46.044Z,22.75
2024-03-13T17:00:17.943Z,22.33
2024-03-13T17:02:46.350Z,22.70
2024-03-13T17:05:16.033Z,22.23
2024-03-13T17:07:44.444Z,22.98
2024-03-13T17:10:11.476Z,20.42
2024-03-13T17:12:39.936Z,15.07
2024-03-13T17:15:09.231Z,13.35
2024-03-13T17:17:38.991Z,23.08
2024-03-13T17:20:11.650Z,18.30
2024-03-13T17:22:39.187Z,17.23
2024-03-13T17:25:14.286Z,15.73
2024-03-13T17:27:43.577Z,20.80
2024-03-13T17:30:14.809Z,19.75
2024-03-13T17:32:44.132Z,19.25
2024-03-13T17:35:12.184Z,21.05
2024-03-13T17:37:39.282Z,20.70
2024-03-13T17:40:15.173Z,19.05
2024-03-13T17:42:45.728Z,19.15
2024-03-13T17:45:13.363Z,18.55
2024-03-13T17:47:41.049Z,14.88
2024-03-13T17:50:13.301Z,19.48
2024-03-13T17:52:41.602Z,17.75
2024-03-13T17:55:14.765Z,19.98
2024-03-13T17:57:42.060Z,27.25
2024-03-13T18:00:12.229Z,22.30
2024-03-13T18:02:39.886Z,19.00
2024-03-13T18:05:12.007Z,17.85
2024-03-13T18:07:40.214Z,21.13
2024-03-13T18:10:07.949Z,24.92
2024-03-13T18:12:36.663Z,23.05
2024-03-13T18:15:04.087Z,27.55
2024-03-13T18:17:32.257Z,27.70
2024-03-13T18:19:59.686Z,24.38
2024-03-13T18:22:26.615Z,23.20
2024-03-13T18:24:55.599Z,24.90
2024-03-13T18:27:23.174Z,26.85
2024-03-13T18:29:50.780Z,23.85
2024-03-13T18:32:18.021Z,27.08
2024-03-13T18:34:48.230Z,26.88
2024-03-13T18:37:15.473Z,27.75
2024-03-13T18:39:43.927Z,28.23
2024-03-13T18:42:11.708Z,28.90
2024-03-13T18:44:39.503Z,26.92
2024-03-13T18:47:07.478Z,27.88
2024-03-13T18:49:35.669Z,26.85
2024-03-13T18:52:06.802Z,28.27
2024-03-13T18:54:36.037Z,27.63
2024-03-13T18:57:04.520Z,27.42
2024-03-13T18:59:33.252Z,27.90
2024-03-13T19:02:00.392Z,28.17
2024-03-13T19:04:28.950Z,37.83
2024-03-13T19:06:56.660Z,32.08
2024-03-13T19:09:23.818Z,35.15
2024-03-13T19:11:51.247Z,39.83
2024-03-13T19:14:18.158Z,65.38
2024-03-13T19:16:45.505Z,63.45
2024-03-13T19:19:13.964Z,56.50
2024-03-13T19:21:43.808Z,41.95
2024-03-13T19:24:13.636Z,36.15
2024-03-13T19:26:40.463Z,37.17
2024-03-13T19:29:07.481Z,43.90
2024-03-13T19:31:39.264Z,53.70
2024-03-13T19:34:11.655Z,56.05
2024-03-13T19:36:39.040Z,63.17
2024-03-13T19:39:06.171Z,60.35
2024-03-13T19:41:33.616Z,56.20
2024-03-13T19:44:01.366Z,57.15
2024-03-13T19:46:36.367Z,48.42
2024-03-13T19:49:04.698Z,38.15
2024-03-13T19:51:32.074Z,33.55
2024-03-13T19:54:00.639Z,31.33
2024-03-13T19:56:27.994Z,33.15
2024-03-13T19:58:56.067Z,29.63
2024-03-13T20:01:23.509Z,33.58
2024-03-13T20:03:50.681Z,30.25
2024-03-13T20:06:17.748Z,31.30
2024-03-13T20:08:45.580Z,27.95
2024-03-13T20:11:13.584Z,22.85
2024-03-13T20:13:43.168Z,23.40
2024-03-13T20:16:13.417Z,22.40
2024-03-13T20:18:44.218Z,22.85
2024-03-13T20:21:12.245Z,21.55
2024-03-13T20:23:43.091Z,23.88
2024-03-13T20:26:10.372Z,23.98
2024-03-13T20:28:40.623Z,24.98
2024-03-13T20:31:08.781Z,24.65
2024-03-13T20:33:36.357Z,24.70
2024-03-13T20:36:03.741Z,22.63
2024-03-13T20:38:32.625Z,20.60
2024-03-13T20:40:59.595Z,20.10
2024-03-13T20:43:27.524Z,19.65
2024-03-13T20:45:55.082Z,23.92
2024-03-13T20:48:22.566Z,30.92
2024-03-13T20:50:50.018Z,24.67
2024-03-13T20:53:19.421Z,24.67
2024-03-13T20:55:47.494Z,74.13
2024-03-13T20:58:15.177Z,38.83
2024-03-13T21:00:43.385Z,20.77
2024-03-13T21:03:10.388Z,24.33
2024-03-13T21:05:37.574Z,19.05
2024-03-13T21:08:04.767Z,18.88
2024-03-13T21:10:32.031Z,19.60
2024-03-13T21:12:59.198Z,15.55
2024-03-13T21:15:29.176Z,20.90
2024-03-13T21:17:56.513Z,19.38
2024-03-13T21:20:25.469Z,18.58
2024-03-13T21:22:54.501Z,21.05
2024-03-13T21:25:23.052Z,56.70
2024-03-13T21:27:50.487Z,57.55
2024-03-13T21:30:17.443Z,20.10
2024-03-13T21:32:45.857Z,19.08
2024-03-13T21:35:13.376Z,21.70
2024-03-13T21:37:41.764Z,23.30
2024-03-13T21:40:17.174Z,20.38
2024-03-13T21:42:46.578Z,23.13
2024-03-13T21:45:14.540Z,28.33
2024-03-13T21:47:45.551Z,41.88
2024-03-13T21:50:12.932Z,48.03
2024-03-13T21:52:43.333Z,47.40
2024-03-13T21:55:11.467Z,55.42
2024-03-13T21:57:39.008Z,54.38
2024-03-13T22:00:07.415Z,52.30
2024-03-13T22:02:34.393Z,20.80
2024-03-13T22:05:05.392Z,26.27
2024-03-13T22:07:32.931Z,22.67
2024-03-13T22:10:05.314Z,33.50
2024-03-13T22:12:32.248Z,43.08
2024-03-13T22:15:06.763Z,33.97
2024-03-13T22:17:35.131Z,26.67
2024-03-13T22:20:05.316Z,27.90
2024-03-13T22:22:34.473Z,21.77
2024-03-13T22:25:01.416Z,21.98
2024-03-13T22:27:29.922Z,25.02
2024-03-13T22:29:57.838Z,28.67
2024-03-13T22:32:30.935Z,25.75
2024-03-13T22:34:58.265Z,25.48
2024-03-13T22:37:25.539Z,23.05
2024-03-13T22:39:52.814Z,21.23
2024-03-13T22:42:20.813Z,20.75
2024-03-13T22:44:48.638Z,16.98
2024-03-13T22:47:16.433Z,18.08
2024-03-13T22:49:46.540Z,22.70
2024-03-13T22:52:15.648Z,24.52
2024-03-13T22:54:42.524Z,27.02
2024-03-13T22:57:10.772Z,28.25
2024-03-13T22:59:37.990Z,51.35
2024-03-13T23:02:05.138Z,48.13
2024-03-13T23:04:35.519Z,96.47
2024-03-13T23:07:04.675Z,33.28
2024-03-13T23:09:32.840Z,25.90
2024-03-13T23:12:04.405Z,25.85
2024-03-13T23:14:33.401Z,22.38
2024-03-13T23:17:11.530Z,25.58
2024-03-13T23:19:39.064Z,26.45
2024-03-13T23:22:07.835Z,24.65
2024-03-13T23:24:35.199Z,27.02
2024-03-13T23:27:03.459Z,29.38
2024-03-13T23:29:31.469Z,30.13
2024-03-13T23:31:58.414Z,37.33
2024-03-13T23:34:26.385Z,37.88
2024-03-13T23:36:53.353Z,34.35
2024-03-13T23:39:25.524Z,28.23
2024-03-13T23:41:54.168Z,33.75
2024-03-13T23:44:21.569Z,33.42
2024-03-13T23:46:51.812Z,30.75
2024-03-13T23:49:23.897Z,28.83
2024-03-13T23:51:52.949Z,33.20
2024-03-13T23:54:19.932Z,33.05
2024-03-13T23:56:47.030Z,27.88
2024-03-13T23:59:14.513Z,30.67
